Time;durP1;ratioP1;P1;durP2;ratioP2;P2;SDS_P1;SDS_P2;PMS_P1;PMS_P2;Temp;Humidity;BMP_temperature;BMP_pressure;BME280_temperature;BME280_humidity;BME280_pressure;Samples;Min_cycle;Max_cycle;Signal;HPM_P1;HPM_P2
2022/05/16 00:00:24;;;;;;;8.18;6.47;;;;;;;24.70;59.33;101226.16;4994287;28;20043;-75
2022/05/16 00:02:54;;;;;;;7.55;6.38;;;;;;;24.69;59.62;101228.00;4994028;28;20069;-75
2022/05/16 00:05:22;;;;;;;8.25;6.30;;;;;;;24.70;59.31;101229.69;4994348;28;20058;-74
2022/05/16 00:07:50;;;;;;;8.23;7.00;;;;;;;24.69;59.30;101224.44;4993068;28;20065;-75
2022/05/16 00:10:17;;;;;;;6.93;6.22;;;;;;;24.69;59.32;101229.88;4993750;28;20046;-75
2022/05/16 00:12:45;;;;;;;7.07;6.47;;;;;;;24.70;59.42;101228.84;4994809;28;20466;-75
2022/05/16 00:15:15;;;;;;;7.15;6.45;;;;;;;24.69;59.55;101228.00;4993993;28;20047;-75
2022/05/16 00:17:42;;;;;;;7.18;6.47;;;;;;;24.69;59.43;101225.31;4994507;28;20057;-74
2022/05/16 00:20:13;;;;;;;8.07;7.15;;;;;;;24.69;59.30;101222.59;5009364;28;20054;-74
2022/05/16 00:22:41;;;;;;;6.90;6.30;;;;;;;24.69;59.40;101221.75;4993952;28;20050;-74
2022/05/16 00:25:10;;;;;;;7.20;6.50;;;;;;;24.70;59.37;101228.84;4993855;28;20050;-75
2022/05/16 00:27:38;;;;;;;7.53;6.68;;;;;;;24.69;59.38;101222.59;4994371;28;20038;-74
2022/05/16 00:30:09;;;;;;;7.25;6.55;;;;;;;24.69;59.39;101222.59;4993562;28;20057;-75
2022/05/16 00:32:36;;;;;;;6.80;6.10;;;;;;;24.69;59.24;101219.03;4993873;28;20050;-74
2022/05/16 00:35:06;;;;;;;6.38;5.82;;;;;;;24.69;59.27;101224.44;4992824;28;20069;-74
2022/05/16 00:37:33;;;;;;;7.13;6.53;;;;;;;24.69;59.30;101221.75;4993472;28;20046;-74
2022/05/16 00:40:00;;;;;;;7.70;7.00;;;;;;;24.69;59.29;101221.75;4993429;28;20077;-74
2022/05/16 00:42:28;;;;;;;7.88;6.95;;;;;;;24.69;59.43;101216.34;4993818;28;20054;-74
2022/05/16 00:44:55;;;;;;;7.00;6.30;;;;;;;24.67;59.39;101220.06;4993230;28;20046;-74
2022/05/16 00:47:23;;;;;;;6.40;5.80;;;;;;;24.67;59.42;101214.63;4993523;28;20043;-74
2022/05/16 00:49:52;;;;;;;9.98;7.18;;;;;;;24.67;59.26;101217.34;4993650;28;20114;-74
2022/05/16 00:52:24;;;;;;;7.18;6.47;;;;;;;24.68;59.26;101231.72;4993612;28;20050;-74
2022/05/16 00:54:55;;;;;;;8.52;6.97;;;;;;;24.67;59.49;101222.75;4992945;28;20050;-74
2022/05/16 00:57:27;;;;;;;7.32;6.57;;;;;;;24.69;59.55;101221.75;4993921;28;20061;-74
2022/05/16 01:00:09;;;;;;;7.43;6.35;;;;;;;24.67;59.13;101220.06;4993641;28;20047;-74
2022/05/16 01:05:28;;;;;;;7.18;6.47;;;;;;;24.68;59.46;101226.31;4988806;28;20062;-74
2022/05/16 01:08:07;;;;;;;7.57;6.82;;;;;;;24.68;59.33;101218.19;4973717;28;20054;-74
2022/05/16 01:10:35;;;;;;;9.13;6.53;;;;;;;24.69;59.61;101224.44;4989393;28;20151;-73
2022/05/16 01:13:03;;;;;;;7.50;6.80;;;;;;;24.69;59.65;101216.34;4974258;28;20058;-74
2022/05/16 01:15:36;;;;;;;7.32;6.63;;;;;;;24.68;59.59;101218.19;4973665;28;20050;-73
2022/05/16 01:18:05;;;;;;;6.82;6.22;;;;;;;24.68;59.48;101215.50;4974137;28;20051;-74
2022/05/16 01:20:56;;;;;;;7.63;6.68;;;;;;;24.67;59.52;101213.75;4977456;28;20046;-74
2022/05/16 01:23:26;;;;;;;7.80;6.53;;;;;;;24.67;59.42;101220.06;5014273;28;20386;-74
2022/05/16 01:25:54;;;;;;;7.35;6.68;;;;;;;24.67;59.16;101219.19;4997302;28;20085;-74
2022/05/16 01:28:23;;;;;;;8.18;7.05;;;;;;;24.69;59.31;101221.75;5014916;28;20057;-74
2022/05/16 01:30:54;;;;;;;7.07;6.10;;;;;;;24.67;59.15;101222.75;5014861;28;20053;-74
2022/05/16 01:33:25;;;;;;;7.82;7.10;;;;;;;24.67;59.51;101219.19;5015295;28;20046;-74
2022/05/16 01:35:53;;;;;;;6.75;6.15;;;;;;;24.68;59.49;101220.91;5034028;28;20068;-73
2022/05/16 01:38:23;;;;;;;7.72;6.88;;;;;;;24.67;59.30;101222.75;5034146;28;20041;-75
2022/05/16 01:41:02;;;;;;;8.23;6.53;;;;;;;24.67;59.38;101216.47;5021751;28;20058;-74
2022/05/16 01:43:37;;;;;;;10.32;7.72;;;;;;;24.69;59.46;101221.75;5015054;28;20050;-73
2022/05/16 01:46:06;;;;;;;7.63;6.93;;;;;;;24.67;59.36;101220.06;5022730;28;20525;-73
2022/05/16 01:48:34;;;;;;;8.23;6.85;;;;;;;24.67;59.35;101221.88;5033213;28;20132;-73
2022/05/16 01:51:04;;;;;;;7.57;6.88;;;;;;;24.66;59.25;101223.75;5033658;28;20053;-73
2022/05/16 01:53:33;;;;;;;8.68;7.22;;;;;;;24.67;59.29;101230.00;5034240;28;20054;-74
2022/05/16 01:56:01;;;;;;;6.90;6.15;;;;;;;24.66;59.23;101234.56;5033612;28;20135;-73
2022/05/16 01:58:28;;;;;;;6.97;6.25;;;;;;;24.67;59.36;101228.19;5033968;28;20053;-73
2022/05/16 02:00:56;;;;;;;7.95;7.18;;;;;;;24.66;59.23;101223.75;5009805;28;20414;-73
2022/05/16 02:03:23;;;;;;;9.00;6.70;;;;;;;24.67;59.22;101225.47;4996229;28;20042;-74
2022/05/16 02:05:51;;;;;;;8.45;7.28;;;;;;;24.66;59.07;101223.75;4996613;28;20046;-74
2022/05/16 02:08:18;;;;;;;7.50;6.80;;;;;;;24.65;58.94;101218.50;4995991;28;20046;-74
2022/05/16 02:10:46;;;;;;;7.63;6.82;;;;;;;24.65;59.16;101224.75;4995985;28;20050;-74
2022/05/16 02:13:14;;;;;;;7.30;6.63;;;;;;;24.65;59.08;101224.75;4996755;28;20049;-74
2022/05/16 02:15:43;;;;;;;7.35;6.75;;;;;;;24.66;59.07;101217.47;4996017;28;20050;-74
2022/05/16 02:18:11;;;;;;;7.70;7.00;;;;;;;24.65;59.08;101221.22;4995961;28;20046;-74
2022/05/16 02:20:39;;;;;;;6.93;6.22;;;;;;;24.64;58.89;101220.34;4995135;28;20049;-74
2022/05/16 02:25:55;;;;;;;7.35;6.65;;;;;;;24.65;58.87;101221.22;4996051;28;20050;-74
2022/05/16 02:28:23;;;;;;;7.35;6.65;;;;;;;24.65;58.88;101216.63;4996313;28;20034;-74
2022/05/16 02:30:53;;;;;;;7.20;6.53;;;;;;;24.66;59.03;101212.06;4995018;28;20069;-74
2022/05/16 02:33:21;;;;;;;7.45;6.75;;;;;;;24.65;59.25;101204.97;4995688;28;20046;-74
2022/05/16 02:35:49;;;;;;;8.57;7.05;;;;;;;24.65;58.98;101204.97;5011616;28;20050;-74
2022/05/16 02:38:18;;;;;;;7.18;6.47;;;;;;;24.65;58.96;101199.56;4995956;28;20042;-74
2022/05/16 02:40:45;;;;;;;8.00;6.78;;;;;;;24.64;59.01;101209.53;4996495;28;20073;-74
2022/05/16 02:43:12;;;;;;;7.75;6.95;;;;;;;24.65;58.89;101208.50;4996153;28;20057;-74
2022/05/16 02:45:40;;;;;;;6.85;6.28;;;;;;;24.64;58.92;101217.66;4996162;28;20066;-74
2022/05/16 02:48:08;;;;;;;8.20;7.05;;;;;;;24.64;59.13;101214.94;4995705;28;20049;-75
2022/05/16 02:50:35;;;;;;;7.20;6.50;;;;;;;24.64;58.95;101217.66;4995944;28;20053;-73
2022/05/16 02:53:02;;;;;;;6.97;6.28;;;;;;;24.65;59.02;101215.78;4995637;28;20046;-73
2022/05/16 02:55:31;;;;;;;7.25;6.55;;;;;;;24.64;59.00;101209.53;5010444;28;20056;-74
2022/05/16 02:57:59;;;;;;;8.32;7.05;;;;;;;24.64;58.97;101209.53;4994189;28;20477;-74
2022/05/16 03:00:27;;;;;;;7.13;6.43;;;;;;;24.64;59.09;101214.94;4995471;28;20513;-73
2022/05/16 03:02:54;;;;;;;8.10;6.40;;;;;;;24.64;58.96;101223.06;5010010;28;20483;-74
2022/05/16 03:05:21;;;;;;;7.63;6.82;;;;;;;24.65;59.03;101223.91;4994862;28;20433;-74
2022/05/16 03:07:49;;;;;;;7.22;6.63;;;;;;;24.65;59.19;101229.34;4994667;28;20049;-74
2022/05/16 03:10:16;;;;;;;7.35;6.70;;;;;;;24.64;59.08;101236.59;4995186;28;20402;-74
2022/05/16 03:12:45;;;;;;;7.60;6.88;;;;;;;24.64;58.99;101227.63;4995040;28;20383;-74
2022/05/16 03:15:14;;;;;;;7.97;7.03;;;;;;;24.63;58.98;101226.78;4995431;28;20053;-74
2022/05/16 03:17:43;;;;;;;7.10;6.18;;;;;;;24.63;58.90;101229.50;4995119;28;20049;-74
2022/05/16 03:20:13;;;;;;;7.35;6.53;;;;;;;24.63;59.13;101226.78;4995018;28;20054;-74
2022/05/16 03:22:41;;;;;;;7.00;6.38;;;;;;;24.63;58.92;101234.91;4995326;28;20046;-75
2022/05/16 03:25:10;;;;;;;7.40;6.70;;;;;;;24.63;58.79;101232.22;4994906;28;20073;-74
2022/05/16 03:27:38;;;;;;;7.38;6.65;;;;;;;24.62;58.73;101244.03;4995144;28;20509;-74
2022/05/16 03:30:08;;;;;;;7.75;6.55;;;;;;;24.61;58.73;101242.31;4994154;28;20057;-74
2022/05/16 03:32:36;;;;;;;6.68;6.07;;;;;;;24.63;58.91;101244.88;4994463;28;20046;-74
2022/05/16 03:35:04;;;;;;;8.05;6.35;;;;;;;24.62;58.82;101241.31;4994439;28;20057;-74
2022/05/16 03:37:32;;;;;;;7.00;6.35;;;;;;;24.62;58.73;101244.03;4994733;28;20067;-74
2022/05/16 03:42:45;;;;;;;7.82;6.93;;;;;;;24.61;58.92;101236.06;4974761;28;20087;-74
2022/05/16 03:45:12;;;;;;;6.22;5.63;;;;;;;24.62;58.72;101238.59;4975126;28;20043;-74
2022/05/16 03:47:40;;;;;;;7.90;6.32;;;;;;;24.61;58.67;101236.06;4998099;28;20094;-73
2022/05/16 03:50:09;;;;;;;7.00;6.40;;;;;;;24.60;58.96;101235.22;4993954;28;20494;-73
2022/05/16 03:52:38;;;;;;;6.88;6.28;;;;;;;24.62;58.86;101246.72;4993257;28;20510;-74
2022/05/16 03:55:14;;;;;;;6.72;6.05;;;;;;;24.61;58.74;101244.19;4994683;28;20431;-74
2022/05/16 03:57:43;;;;;;;7.28;6.57;;;;;;;24.62;58.77;101244.03;4994090;28;20045;-74
2022/05/16 04:00:13;;;;;;;7.43;6.72;;;;;;;24.61;58.69;101250.44;4993182;28;20122;-74
2022/05/16 04:02:42;;;;;;;6.53;5.93;;;;;;;24.62;58.79;101245.88;4994448;28;20529;-74
2022/05/16 04:05:11;;;;;;;7.25;6.53;;;;;;;24.61;58.68;101246.88;4994728;28;20047;-73
2022/05/16 04:07:38;;;;;;;7.32;6.43;;;;;;;24.61;58.79;101247.75;4993803;28;20050;-73
2022/05/16 04:10:06;;;;;;;6.63;6.03;;;;;;;24.61;58.55;101249.59;4993702;28;20046;-73
2022/05/16 04:12:34;;;;;;;8.25;6.35;;;;;;;24.60;58.82;101246.03;4993907;28;20046;-74
2022/05/16 04:15:02;;;;;;;8.50;6.75;;;;;;;24.60;58.81;101259.59;4993123;28;20054;-73
2022/05/16 04:17:29;;;;;;;7.53;6.20;;;;;;;24.61;58.63;101252.31;4992918;28;20046;-74
2022/05/16 04:19:57;;;;;;;7.50;6.15;;;;;;;24.61;58.67;101260.44;4993878;28;20490;-74
2022/05/16 04:22:24;;;;;;;6.63;5.97;;;;;;;24.60;58.66;101262.28;4994332;28;20054;-74
2022/05/16 04:24:51;;;;;;;7.28;6.05;;;;;;;24.60;58.51;101264.16;4993740;28;20054;-73
2022/05/16 04:27:18;;;;;;;6.45;5.85;;;;;;;24.59;58.63;101263.31;4994024;28;20406;-73
2022/05/16 04:29:46;;;;;;;6.80;6.10;;;;;;;24.60;58.67;101273.13;4993819;28;20049;-74
2022/05/16 04:32:13;;;;;;;5.78;5.28;;;;;;;24.60;58.51;101267.69;4993875;28;20050;-74
2022/05/16 04:34:41;;;;;;;7.25;5.50;;;;;;;24.60;58.38;101283.09;4993778;28;20050;-74
2022/05/16 04:37:08;;;;;;;6.80;6.20;;;;;;;24.60;58.48;101266.84;4994082;28;20043;-74
2022/05/16 04:39:35;;;;;;;6.40;5.80;;;;;;;24.60;58.42;101264.16;4993482;28;20149;-74
2022/05/16 04:44:49;;;;;;;6.63;6.00;;;;;;;24.59;58.32;101273.25;4993555;28;20054;-74
2022/05/16 04:47:16;;;;;;;6.35;5.72;;;;;;;24.59;58.37;101276.84;4993793;28;20050;-74
2022/05/16 04:49:44;;;;;;;6.70;6.10;;;;;;;24.59;58.61;101278.66;4992216;28;20035;-74
2022/05/16 04:52:11;;;;;;;6.68;6.07;;;;;;;24.60;58.27;101283.09;4993546;28;20046;-74
2022/05/16 04:54:40;;;;;;;7.35;6.45;;;;;;;24.59;58.56;101281.38;5013675;28;20046;-74
2022/05/16 04:57:08;;;;;;;7.40;6.50;;;;;;;24.59;58.25;101279.53;4999850;28;20050;-74
2022/05/16 04:59:36;;;;;;;6.78;6.18;;;;;;;24.58;58.37;101280.53;4999683;28;20051;-74
2022/05/16 05:02:03;;;;;;;7.60;6.18;;;;;;;24.59;58.25;101293.09;5000309;28;20161;-74
2022/05/16 05:04:31;;;;;;;7.85;6.53;;;;;;;24.58;58.50;101287.81;4999878;28;20046;-74
2022/05/16 05:06:58;;;;;;;8.23;5.72;;;;;;;24.58;58.38;101288.66;4982208;28;20047;-74
2022/05/16 05:09:25;;;;;;;6.70;5.97;;;;;;;24.59;58.31;101289.50;4979897;28;20069;-74
2022/05/16 05:14:41;;;;;;;6.05;5.50;;;;;;;24.59;58.26;101297.63;4979029;28;20059;-75
2022/05/16 05:17:11;;;;;;;7.20;5.95;;;;;;;24.59;58.04;101303.91;4980363;28;20051;-75
2022/05/16 05:19:42;;;;;;;7.97;5.97;;;;;;;24.58;57.96;101304.88;4980129;28;20051;-75
2022/05/16 05:22:10;;;;;;;7.65;6.35;;;;;;;24.60;57.91;101304.75;4980632;28;20054;-74
2022/05/16 05:24:37;;;;;;;7.78;6.00;;;;;;;24.58;57.49;101310.31;4980650;28;20062;-74
2022/05/16 05:27:05;;;;;;;6.43;5.70;;;;;;;24.59;57.73;101313.84;4980328;28;20050;-74
2022/05/16 05:29:32;;;;;;;6.13;5.38;;;;;;;24.58;57.89;101313.00;4980070;28;20043;-74
2022/05/16 05:31:59;;;;;;;7.88;6.40;;;;;;;24.59;57.83;101312.03;4980913;28;20407;-74
2022/05/16 05:34:27;;;;;;;7.85;5.72;;;;;;;24.59;57.84;101319.28;4989686;28;20054;-74
2022/05/16 05:36:54;;;;;;;6.60;5.88;;;;;;;24.59;57.97;101311.16;4998804;28;20406;-74
2022/05/16 05:39:22;;;;;;;8.38;6.68;;;;;;;24.59;57.86;101319.28;4999728;28;20038;-74
2022/05/16 05:41:49;;;;;;;6.22;5.63;;;;;;;24.59;57.73;101320.16;4999908;28;20050;-74
2022/05/16 05:44:16;;;;;;;6.10;5.50;;;;;;;24.60;57.92;101316.44;4999235;28;20049;-74
2022/05/16 05:46:44;;;;;;;5.35;4.68;;;;;;;24.58;58.02;101321.13;4999684;28;20058;-74
2022/05/16 05:49:12;;;;;;;6.20;5.63;;;;;;;24.59;57.82;101321.97;4999082;28;20034;-74
2022/05/16 05:51:40;;;;;;;5.93;5.32;;;;;;;24.59;57.89;101322.84;4998622;28;20050;-74
2022/05/16 05:54:07;;;;;;;7.65;5.65;;;;;;;24.59;57.86;101325.56;4999065;28;20049;-74
2022/05/16 05:56:35;;;;;;;8.13;5.38;;;;;;;24.60;57.84;101331.81;4999384;28;20077;-74
2022/05/16 05:59:03;;;;;;;6.57;5.30;;;;;;;24.59;57.96;101317.44;4999071;28;20043;-74
2022/05/16 06:01:31;;;;;;;5.78;5.18;;;;;;;24.59;57.69;101325.56;5000005;28;20046;-74
2022/05/16 06:03:59;;;;;;;6.22;5.30;;;;;;;24.58;57.95;101323.00;4999788;28;20113;-73
2022/05/16 06:06:27;;;;;;;6.63;5.88;;;;;;;24.59;57.77;101325.56;4995957;28;20050;-74
2022/05/16 06:08:54;;;;;;;6.07;5.45;;;;;;;24.58;57.75;101318.44;4996869;28;20506;-74
2022/05/16 06:11:27;;;;;;;6.55;5.20;;;;;;;24.59;57.84;101328.28;4996962;28;20046;-74
2022/05/16 06:13:55;;;;;;;;;;;;;;;24.59;57.85;101330.97;4997031;28;20057;-73
2022/05/16 06:16:22;;;;;;;5.25;4.75;;;;;;;24.60;57.91;101337.25;4995865;28;19929;-74
2022/05/16 06:18:50;;;;;;;6.93;5.53;;;;;;;24.59;57.91;101330.97;4996267;28;20050;-74
2022/05/16 06:21:17;;;;;;;5.72;5.13;;;;;;;24.59;57.75;101335.50;4996354;28;20046;-73
2022/05/16 06:23:44;;;;;;;6.13;5.32;;;;;;;24.59;57.74;101339.09;4996441;28;20057;-74
2022/05/16 06:26:12;;;;;;;5.97;5.38;;;;;;;24.59;57.85;101330.97;4996234;28;20054;-73
2022/05/16 06:28:39;;;;;;;5.97;5.20;;;;;;;24.60;57.66;101337.25;5010794;28;20094;-73
2022/05/16 06:31:07;;;;;;;6.78;5.80;;;;;;;24.59;57.65;101332.81;4996497;28;20053;-73
2022/05/16 06:33:34;;;;;;;6.78;5.72;;;;;;;24.59;57.75;101336.41;4996334;28;20042;-71
2022/05/16 06:36:03;;;;;;;10.18;5.35;;;;;;;24.59;56.50;101330.09;4996248;28;20058;-73
2022/05/16 06:38:34;;;;;;;8.90;5.65;;;;;;;24.58;54.50;101339.22;4994055;28;20046;-72
2022/05/16 06:41:01;;;;;;;7.78;5.28;;;;;;;24.57;54.25;101332.97;4996052;28;20050;-72
2022/05/16 06:43:30;;;;;;;7.18;5.75;;;;;;;24.55;53.32;101332.28;4995795;28;20047;-71
2022/05/16 06:45:58;;;;;;;8.85;5.30;;;;;;;24.53;53.24;101326.16;4996145;28;20057;-72
2022/05/16 06:48:26;;;;;;;7.88;5.60;;;;;;;24.51;51.66;101325.50;4995589;28;20045;-73
2022/05/16 06:50:53;;;;;;;10.73;5.65;;;;;;;24.50;52.17;101331.03;4991986;28;20087;-72
2022/05/16 06:53:27;;;;;;;6.78;4.85;;;;;;;24.49;52.04;101329.34;4995190;28;20046;-73
2022/05/16 06:55:57;;;;;;;8.32;5.63;;;;;;;24.48;51.90;101336.63;4996008;28;20050;-73
2022/05/16 06:58:24;;;;;;;8.30;5.50;;;;;;;24.48;50.43;101339.31;4995505;28;20057;-73
2022/05/16 07:00:52;;;;;;;9.05;5.53;;;;;;;24.47;49.26;101344.88;4976867;28;20050;-75
2022/05/16 07:03:20;;;;;;;7.15;4.50;;;;;;;24.44;48.47;101351.47;4975234;28;20055;-74
2022/05/16 07:05:52;;;;;;;8.68;5.00;;;;;;;24.44;48.85;101345.19;4977010;28;20055;-73
2022/05/16 07:08:21;;;;;;;9.00;5.53;;;;;;;24.42;48.77;101357.00;4974434;28;20099;-73
2022/05/16 07:10:50;;;;;;;9.10;4.72;;;;;;;24.40;48.39;101352.78;4975884;28;20046;-72
2022/05/16 07:13:23;;;;;;;6.82;4.43;;;;;;;24.36;48.51;101352.19;4976451;28;20054;-74
2022/05/16 07:15:52;;;;;;;7.05;5.05;;;;;;;24.36;48.27;101354.88;4974689;28;20046;-74
2022/05/16 07:18:20;;;;;;;9.38;4.97;;;;;;;24.35;48.39;101360.47;4975054;28;20055;-74
2022/05/16 07:20:47;;;;;;;5.93;4.00;;;;;;;24.34;48.26;101364.16;4976198;28;20399;-73
2022/05/16 07:23:16;;;;;;;8.02;5.30;;;;;;;24.32;47.94;101360.75;4990109;28;20042;-73
2022/05/16 07:28:29;;;;;;;6.43;4.60;;;;;;;24.32;47.94;101369.72;4995113;28;20126;-73
2022/05/16 07:30:57;;;;;;;8.27;5.22;;;;;;;24.32;48.39;101372.44;4994373;28;20042;-72
2022/05/16 07:33:25;;;;;;;9.77;5.22;;;;;;;24.33;47.93;101376.84;4994669;28;20053;-72
2022/05/16 07:35:52;;;;;;;10.20;4.95;;;;;;;24.33;47.38;101378.69;4994644;28;20509;-73
2022/05/16 07:38:21;;;;;;;7.63;5.10;;;;;;;24.32;47.01;101383.25;4994000;28;20057;-72
2022/05/16 07:40:49;;;;;;;7.88;5.25;;;;;;;24.33;47.08;101378.69;4992881;28;20046;-72
2022/05/16 07:43:17;;;;;;;8.55;5.05;;;;;;;24.33;47.11;101376.00;4993763;28;20094;-74
2022/05/16 07:45:46;;;;;;;10.07;5.57;;;;;;;24.33;47.07;101373.28;4994242;28;20062;-73
2022/05/16 07:48:15;;;;;;;8.00;4.53;;;;;;;24.33;47.30;101376.00;4994802;28;20516;-72
2022/05/16 07:50:44;;;;;;;7.72;4.82;;;;;;;24.35;47.96;101372.13;4993234;28;20038;-75
2022/05/16 07:53:13;;;;;;;7.70;5.05;;;;;;;24.36;48.07;101372.97;4993697;28;20639;-73
2022/05/16 07:55:50;;;;;;;10.00;4.97;;;;;;;24.37;48.04;101375.53;4994125;28;20046;-73
2022/05/16 07:58:20;;;;;;;10.00;4.90;;;;;;;24.38;47.78;101366.44;4995030;28;20046;-73
2022/05/16 08:00:54;;;;;;;8.98;4.90;;;;;;;24.38;47.66;101355.59;4994503;28;20045;-73
2022/05/16 08:03:25;;;;;;;11.15;5.13;;;;;;;24.39;47.40;101356.47;4995433;28;20065;-74
2022/05/16 08:05:52;;;;;;;8.10;4.82;;;;;;;24.39;47.43;101353.78;4995736;28;20046;-75
2022/05/16 08:11:07;;;;;;;6.93;5.13;;;;;;;24.41;47.73;101373.41;4994089;28;20065;-72
2022/05/16 08:13:36;;;;;;;6.38;5.13;;;;;;;24.42;47.06;101358.88;4993998;28;20053;-72
2022/05/16 08:16:04;;;;;;;10.63;4.35;;;;;;;24.44;47.59;101362.28;4994265;28;20050;-72
2022/05/16 08:18:32;;;;;;;7.97;4.78;;;;;;;24.45;48.27;101369.38;4992689;28;20062;-72
2022/05/16 08:20:59;;;;;;;7.55;4.70;;;;;;;24.47;47.49;101364.69;4992679;28;20049;-73
2022/05/16 08:23:29;;;;;;;10.57;5.63;;;;;;;24.48;47.47;101366.38;4994019;28;20353;-73
2022/05/16 08:26:07;;;;;;;6.53;4.65;;;;;;;24.51;47.49;101370.63;4994123;28;20065;-73
2022/05/16 08:28:34;;;;;;;10.55;5.07;;;;;;;24.50;46.76;101367.06;4991659;28;20046;-72
2022/05/16 08:31:02;;;;;;;6.65;4.78;;;;;;;24.50;46.11;101367.06;4993717;28;20057;-71
2022/05/16 08:33:30;;;;;;;6.35;4.50;;;;;;;24.51;46.96;101368.78;4993106;28;20047;-73
2022/05/16 08:41:34;;;;;;;7.68;4.88;;;;;;;24.53;46.82;101364.06;4993341;28;20505;-72
2022/05/16 08:44:19;;;;;;;8.60;5.53;;;;;;;24.54;47.13;101365.75;4993692;28;20058;-73
2022/05/16 08:47:01;;;;;;;8.75;4.60;;;;;;;24.56;46.61;101361.06;4993764;28;20061;-73
2022/05/16 08:49:44;;;;;;;5.68;4.72;;;;;;;24.55;46.33;101362.06;4993613;28;20513;-73
2022/05/16 08:52:31;;;;;;;7.28;5.05;;;;;;;24.56;46.42;101352.94;4992718;28;20069;-74
2022/05/16 08:55:10;;;;;;;10.02;5.38;;;;;;;24.56;46.32;101357.50;4993009;28;20069;-74
2022/05/16 08:57:44;;;;;;;7.15;4.68;;;;;;;24.57;46.16;101354.63;4993216;28;20458;-74
2022/05/16 09:00:35;;;;;;;6.22;4.82;;;;;;;24.58;46.42;101350.91;4993002;28;20042;-72
2022/05/16 09:03:06;;;;;;;6.28;4.82;;;;;;;24.59;46.77;101341.81;4993288;28;20050;-73
2022/05/16 09:05:43;;;;;;;7.82;4.28;;;;;;;24.60;46.90;101350.78;4993617;28;20062;-72
2022/05/16 09:08:20;;;;;;;9.70;4.63;;;;;;;24.60;46.76;101348.91;4977430;28;20050;-73
2022/05/16 09:11:07;;;;;;;7.47;5.47;;;;;;;24.61;46.39;101349.75;4972912;28;20053;-73
2022/05/16 09:13:52;;;;;;;8.82;5.20;;;;;;;24.62;46.88;101352.31;4974288;28;20054;-73
2022/05/16 09:16:44;;;;;;;7.22;4.90;;;;;;;24.63;46.54;101356.75;4973521;28;20047;-73
2022/05/16 09:19:47;;;;;;;6.60;4.95;;;;;;;24.64;46.97;101355.72;4974094;28;20062;-72
2022/05/16 09:22:25;;;;;;;8.15;5.07;;;;;;;24.65;47.11;101357.41;4972504;28;20047;-73
2022/05/16 09:25:01;;;;;;;9.55;5.50;;;;;;;24.66;47.20;101353.69;4974024;28;20063;-72
2022/05/16 09:30:21;;;;;;;10.70;4.70;;;;;;;24.68;46.66;101348.16;4973817;28;20057;-73
2022/05/16 09:33:02;;;;;;;6.47;5.03;;;;;;;24.68;47.05;101348.16;4972174;28;20054;-73
2022/05/16 09:35:38;;;;;;;7.95;5.22;;;;;;;24.69;47.28;101343.56;4991254;28;20102;-72
2022/05/16 09:38:06;;;;;;;8.00;5.50;;;;;;;24.70;47.63;101342.56;4993524;28;20103;-74
2022/05/16 09:41:00;;;;;;;9.48;5.03;;;;;;;24.71;47.88;101336.13;4995043;28;20047;-74
2022/05/16 09:43:32;;;;;;;7.00;5.18;;;;;;;24.72;47.21;101343.28;4996055;28;20057;-73
2022/05/16 09:46:20;;;;;;;;;;;;;;;24.72;47.58;101336.00;4997629;28;20050;-73
2022/05/16 09:48:55;;;;;;;9.40;6.15;;;;;;;24.73;47.37;101336.84;5014068;28;19921;-73
2022/05/16 09:51:23;;;;;;;7.78;4.82;;;;;;;24.74;48.19;101330.41;5013991;28;20057;-73
2022/05/16 09:53:51;;;;;;;7.15;4.78;;;;;;;24.75;47.68;101338.38;5013551;28;20053;-74
2022/05/16 09:56:54;;;;;;;8.68;4.78;;;;;;;24.76;47.87;101336.53;5013932;28;20049;-73
2022/05/16 09:59:59;;;;;;;7.70;5.15;;;;;;;24.76;47.66;101340.09;5014006;28;20066;-73
2022/05/16 10:02:37;;;;;;;8.48;5.22;;;;;;;24.78;47.71;101346.19;4937418;29;20051;-72
2022/05/16 10:05:20;;;;;;;7.82;5.22;;;;;;;24.79;47.27;101338.91;4932272;29;20052;-73
2022/05/16 10:07:51;;;;;;;6.97;5.10;;;;;;;24.80;47.53;101338.78;4917149;29;20413;-74
2022/05/16 10:10:28;;;;;;;8.65;5.78;;;;;;;24.81;48.06;101336.94;4917017;29;20072;-74
2022/05/16 10:12:57;;;;;;;7.57;5.40;;;;;;;24.83;47.90;101337.59;4917796;29;20424;-73
2022/05/16 10:15:24;;;;;;;8.80;5.25;;;;;;;24.84;47.95;101339.31;4932807;29;20052;-72
2022/05/16 10:17:56;;;;;;;6.82;5.25;;;;;;;24.84;47.87;101333.91;4916909;29;20055;-73
2022/05/16 10:20:28;;;;;;;7.22;5.30;;;;;;;24.85;47.43;101333.75;4917337;29;20071;-74
2022/05/16 10:23:02;;;;;;;9.17;5.83;;;;;;;24.84;47.94;101326.63;4916902;29;20059;-75
2022/05/16 10:25:40;;;;;;;7.10;5.30;;;;;;;24.86;47.41;101321.91;4910803;29;20295;-73
2022/05/16 10:28:13;;;;;;;10.73;5.82;;;;;;;24.86;47.58;101324.59;4898068;29;20406;-75
2022/05/16 10:33:32;;;;;;;9.85;5.03;;;;;;;24.88;47.95;101319.91;4899154;29;20296;-75
2022/05/16 10:36:06;;;;;;;9.00;6.18;;;;;;;24.89;48.19;101320.75;4916670;29;20055;-75
2022/05/16 10:38:46;;;;;;;9.45;5.45;;;;;;;24.90;48.60;101312.44;4913410;28;20058;-73
2022/05/16 10:41:21;;;;;;;7.63;5.18;;;;;;;24.92;48.78;101312.31;4995775;28;20054;-72
2022/05/16 10:44:43;;;;;;;10.07;5.40;;;;;;;25.03;47.47;101309.31;4994465;28;20356;-73
2022/05/16 10:47:30;;;;;;;8.95;6.05;;;;;;;25.07;47.66;101302.59;4975907;28;20094;-73
2022/05/16 10:50:08;;;;;;;9.10;5.72;;;;;;;25.08;47.95;101307.03;4973849;28;20057;-74
2022/05/16 10:52:42;;;;;;;9.73;5.28;;;;;;;25.08;48.07;101301.59;4972370;28;20053;-73
2022/05/16 10:55:10;;;;;;;9.55;6.28;;;;;;;25.08;48.42;101298.03;4968483;28;20057;-73
2022/05/16 10:58:05;;;;;;;7.20;6.22;;;;;;;25.07;48.87;101302.59;4973652;28;20069;-74
2022/05/16 11:00:55;;;;;;;9.93;6.13;;;;;;;25.09;48.55;101299.78;4973852;28;20054;-74
2022/05/16 11:04:09;;;;;;;8.27;6.15;;;;;;;25.13;48.99;101303.88;4974091;28;20406;-75
2022/05/16 11:06:58;;;;;;;7.00;6.00;;;;;;;25.12;48.71;101297.59;4974357;28;20069;-73
2022/05/16 11:09:49;;;;;;;11.68;6.05;;;;;;;25.13;48.92;101288.44;4973958;28;20043;-73
2022/05/16 11:12:39;;;;;;;6.97;5.90;;;;;;;25.14;49.07;101292.00;4973518;28;20399;-73
2022/05/16 11:15:28;;;;;;;9.38;7.00;;;;;;;25.15;48.99;101289.13;4954032;29;20062;-74
2022/05/16 11:18:30;;;;;;;9.57;6.30;;;;;;;25.27;48.77;101284.28;4897112;29;20075;-74
2022/05/16 11:21:03;;;;;;;8.43;6.55;;;;;;;25.53;47.71;101287.00;4832700;29;20455;-74
2022/05/16 11:23:49;;;;;;;9.27;6.18;;;;;;;25.54;48.64;101280.56;4808365;29;20065;-74
2022/05/16 11:26:47;;;;;;;8.90;6.30;;;;;;;25.52;48.87;101271.75;4832309;29;20092;-74
2022/05/16 11:29:20;;;;;;;7.15;5.47;;;;;;;25.48;49.34;101266.78;4849556;29;20392;-75
2022/05/16 11:31:51;;;;;;;9.10;5.53;;;;;;;25.44;49.89;101260.84;4859657;29;20648;-74
2022/05/16 11:34:49;;;;;;;9.18;6.43;;;;;;;25.40;50.06;101267.59;4852601;29;20058;-77
2022/05/16 11:38:05;;;;;;;6.68;5.75;;;;;;;25.38;50.15;101259.63;5087999;27;1318237;-74
2022/05/16 11:40:54;;;;;;;13.18;8.23;;;;;;;25.50;48.85;101252.06;5129928;28;20054;-73
2022/05/16 11:43:36;;;;;;;12.05;7.15;;;;;;;25.59;49.26;101247.53;5127840;28;20062;-76
2022/05/16 11:46:17;;;;;;;9.32;7.50;;;;;;;25.60;48.24;101250.09;5131523;28;20044;-73
2022/05/16 11:48:51;;;;;;;9.27;7.45;;;;;;;25.65;48.43;101234.19;5130830;28;20046;-74
2022/05/16 11:51:50;;;;;;;8.23;7.38;;;;;;;25.61;48.74;101230.09;5130636;28;20398;-74
2022/05/16 11:54:24;;;;;;;7.57;6.30;;;;;;;25.58;48.94;101225.00;5131060;28;20035;-73
2022/05/16 12:03:16;;;;;;;12.10;7.75;;;;;;;25.58;49.55;101222.28;5130863;28;20043;-73
2022/05/16 12:05:45;;;;;;;8.50;7.30;;;;;;;25.55;49.84;101217.19;5130703;28;20053;-74
2022/05/16 12:08:12;;;;;;;8.95;7.07;;;;;;;25.54;50.17;101214.66;5129237;27;20054;-73
2022/05/16 12:10:57;;;;;;;7.93;6.72;;;;;;;25.52;50.33;101206.69;5129658;28;20380;-73
2022/05/16 12:13:29;;;;;;;12.07;8.13;;;;;;;25.50;50.36;101195.13;5130125;28;20046;-74
2022/05/16 12:16:14;;;;;;;9.15;7.80;;;;;;;25.50;50.36;101197.00;5130372;28;20043;-73
2022/05/16 12:19:09;;;;;;;9.18;7.00;;;;;;;25.48;50.93;101194.47;5130461;28;20482;-74
2022/05/16 12:21:37;;;;;;;10.75;6.75;;;;;;;25.49;50.76;101198.88;5130202;28;20403;-73
2022/05/16 12:24:27;;;;;;;8.88;7.43;;;;;;;25.49;50.62;101192.59;5130058;28;20039;-73